createdAt,value
2023-01-29T00:02:14.422Z,-22694.60
2023-01-29T00:04:41.950Z,-22693.47
2023-01-29T00:07:08.697Z,-22692.75
2023-01-29T00:09:35.519Z,-22692.96
2023-01-29T00:12:02.454Z,-22693.74
2023-01-29T00:14:29.422Z,-22693.23
2023-01-29T00:16:56.760Z,-22693.23
2023-01-29T00:19:23.538Z,-22692.79
2023-01-29T00:21:50.252Z,-22691.93
2023-01-29T00:24:17.140Z,-22690.70
2023-01-29T00:26:44.123Z,-22690.29
2023-01-29T00:29:11.014Z,-22689.09
2023-01-29T00:31:37.906Z,-22688.33
2023-01-29T00:34:07.120Z,-22688.16
2023-01-29T00:36:34.393Z,-22688.68
2023-01-29T00:39:01.970Z,-22689.46
2023-01-29T00:41:48.831Z,-22690.32
2023-01-29T00:44:34.506Z,-22690.56
2023-01-29T00:47:01.307Z,-22690.63
2023-01-29T00:49:29.769Z,-22688.95
2023-01-29T00:52:16.852Z,-22685.83
2023-01-29T00:54:44.044Z,-22682.68
2023-01-29T00:57:10.911Z,-22680.90
2023-01-29T00:59:37.709Z,-22679.91
2023-01-29T01:02:23.125Z,-22679.60
2023-01-29T01:04:49.907Z,-22679.74
2023-01-29T01:07:17.466Z,-22680.60
2023-01-29T01:10:02.677Z,-22680.87
2023-01-29T01:12:29.842Z,-22679.88
2023-01-29T01:14:56.729Z,-22678.71
2023-01-29T01:17:23.759Z,-22677.41
2023-01-29T01:19:50.655Z,-22675.77
2023-01-29T01:22:17.518Z,-22673.79
2023-01-29T01:24:44.261Z,-22673.30
2023-01-29T01:27:11.421Z,-22673.99
2023-01-29T01:29:38.516Z,-22675.43
2023-01-29T01:32:05.590Z,-22678.30
2023-01-29T01:34:32.417Z,-22682.58
2023-01-29T01:36:59.382Z,-22686.86
2023-01-29T01:39:26.479Z,-22687.13
2023-01-29T01:41:53.579Z,-22687.07
2023-01-29T01:44:55.525Z,13527.46
2023-01-29T01:47:42.868Z,-1.00
2023-01-29T01:50:21.464Z,-1.00
2023-01-29T01:52:51.157Z,-1.00
2023-01-29T01:55:21.016Z,-1.00
2023-01-29T01:57:48.473Z,-1.00
2023-01-29T02:00:16.432Z,-1.00
2023-01-29T02:03:02.989Z,-1.00
2023-01-29T02:05:53.069Z,-1.00
2023-01-29T02:08:50.596Z,-1.00
2023-01-29T02:11:17.424Z,-1.00
2023-01-29T02:13:44.517Z,-1.00
2023-01-29T02:16:13.131Z,-1.00
2023-01-29T02:18:40.005Z,-1.00
2023-01-29T02:21:28.524Z,-1.00
2023-01-29T02:24:02.631Z,-1.00
2023-01-29T02:26:32.616Z,-1.00
2023-01-29T02:29:33.119Z,-1.00
2023-01-29T02:32:03.696Z,-1.00
2023-01-29T02:35:07.070Z,-1.00
2023-01-29T02:38:12.518Z,-1.00
2023-01-29T02:41:05.624Z,-1.00
2023-01-29T02:43:47.240Z,-1.00
2023-01-29T02:46:44.684Z,-1.00
2023-01-29T02:49:11.420Z,-1.00
2023-01-29T06:04:52.866Z,-22652.21
2023-01-29T06:07:20.893Z,-22662.31
2023-01-29T06:10:39.048Z,-22669.81
2023-01-29T10:32:45.312Z,-22774.90
2023-01-29T10:35:23.963Z,-22784.33
2023-01-29T10:37:52.937Z,-22789.36
2023-01-29T10:40:21.232Z,-22793.97
2023-01-29T10:43:00.285Z,-22797.97
2023-01-29T10:45:44.624Z,-22800.98
2023-01-29T10:48:33.384Z,-22805.93
2023-01-29T10:51:06.293Z,-22810.62
2023-01-29T10:53:56.993Z,-22812.73
2023-01-29T10:56:52.677Z,-22815.23
2023-01-29T10:59:36.145Z,-22817.55
2023-01-29T11:02:13.001Z,-22818.45
2023-01-29T11:04:40.309Z,-22820.53
2023-01-29T11:07:07.126Z,-22821.76
2023-01-29T11:09:42.805Z,-22824.63
2023-01-29T11:12:20.913Z,-22826.79
2023-01-29T11:14:52.695Z,-22827.47
2023-01-29T11:17:27.731Z,-22830.13
2023-01-29T11:19:57.536Z,-22832.35
2023-01-29T11:22:28.527Z,-22832.70
2023-01-29T11:25:15.494Z,-22832.01
2023-01-29T11:27:49.999Z,-22833.38
2023-01-29T11:30:26.611Z,-22835.16
2023-01-29T11:33:07.664Z,-22836.76
2023-01-29T11:35:35.961Z,-22838.40
2023-01-29T11:38:23.494Z,-22838.40
2023-01-29T11:40:50.838Z,-22837.79
2023-01-29T11:43:27.371Z,-22837.62
2023-01-29T11:46:00.057Z,-22835.84
2023-01-29T11:48:32.775Z,-22834.68
2023-01-29T11:51:03.519Z,-22835.09
2023-01-29T11:53:37.466Z,-22836.96
2023-01-29T12:08:03.260Z,-22815.33
2023-01-29T12:10:41.175Z,-22824.74
2023-01-29T12:13:09.179Z,-22829.28
2023-01-29T12:15:38.283Z,-22832.73
2023-01-29T12:18:25.859Z,-22836.08
2023-01-29T12:20:55.675Z,-22840.55
2023-01-29T12:23:47.691Z,-22841.57
2023-01-29T12:26:17.190Z,-22844.86
2023-01-29T12:28:50.407Z,-22846.12
2023-01-29T12:31:17.677Z,-22844.89
2023-01-29T12:34:07.656Z,-22844.11
2023-01-29T12:36:52.439Z,-22843.56
2023-01-29T12:39:19.540Z,-22844.04
2023-01-29T12:41:59.591Z,-22845.92
2023-01-29T12:44:52.856Z,-22847.14
2023-01-29T12:47:27.460Z,-22846.57
2023-01-29T12:49:56.659Z,-22845.92
2023-01-29T12:52:34.076Z,-22846.19
2023-01-29T12:55:03.135Z,-22845.40
2023-01-29T12:57:44.380Z,-22843.53
2023-01-29T13:00:13.898Z,-22842.78
2023-01-29T13:03:00.865Z,-22843.21
2023-01-29T13:05:38.770Z,-22843.46
2023-01-29T13:08:26.978Z,-22843.56
2023-01-29T13:10:57.972Z,-22843.56
2023-01-29T13:13:30.809Z,-22842.43
2023-01-29T13:15:59.418Z,-22840.72
2023-01-29T13:18:50.353Z,-22839.02
2023-01-29T13:21:22.774Z,-22838.37
2023-01-29T13:23:52.383Z,-22838.33
2023-01-29T13:26:19.649Z,-22838.37
2023-01-29T13:28:47.037Z,-22838.54
2023-01-29T13:31:33.756Z,-22839.05
2023-01-29T13:34:15.902Z,-22840.04
2023-01-29T13:36:44.483Z,-22839.63
2023-01-29T13:39:32.593Z,-22839.87
2023-01-29T13:42:00.337Z,-22841.15
2023-01-29T13:44:37.448Z,8899.00
2023-01-29T13:47:08.653Z,-1.00
2023-01-29T13:49:40.227Z,-1.00
2023-01-29T18:13:04.665Z,-22761.70
2023-01-29T18:15:35.227Z,-22764.81
2023-01-29T18:18:01.923Z,-22767.92
2023-01-29T18:20:30.050Z,-22769.90
2023-01-29T18:22:57.437Z,-22773.15
2023-01-29T18:25:25.781Z,-22776.78
2023-01-29T18:27:52.634Z,-22779.00
2023-01-29T18:30:21.281Z,-22780.50
2023-01-29T18:32:48.327Z,-22783.27
2023-01-29T18:35:16.463Z,-22784.78
2023-01-29T18:37:44.181Z,-22782.52
2023-01-29T18:40:13.296Z,-22781.60
2023-01-29T18:42:40.225Z,-22780.95
2023-01-29T18:45:07.564Z,-22780.16
2023-01-29T18:53:13.652Z,-22769.01
2023-01-29T18:55:40.838Z,-22772.54
2023-01-29T18:58:25.134Z,-22773.63
2023-01-29T19:00:55.149Z,-22775.34
2023-01-29T19:03:22.026Z,-22776.30
2023-01-29T19:05:48.814Z,-22777.32
2023-01-29T19:08:17.997Z,-22777.80
2023-01-29T19:10:44.852Z,-22778.76
2023-01-29T19:13:12.619Z,-22778.28
2023-01-29T19:15:43.641Z,-22777.39
2023-01-29T19:18:14.552Z,-22777.12
2023-01-29T19:20:41.867Z,-22777.02
2023-01-29T19:23:08.920Z,-22776.06
2023-01-29T19:25:38.139Z,-22774.93
2023-01-29T19:28:05.674Z,-22774.45
2023-01-29T19:30:32.521Z,-22774.49
2023-01-29T19:33:03.484Z,-22775.89
2023-01-29T19:35:32.100Z,-22775.89
2023-01-29T19:37:59.415Z,-22776.81
2023-01-29T19:40:26.382Z,-22776.78
2023-01-29T19:42:55.306Z,-22776.06
2023-01-29T19:45:49.088Z,-22775.13
2023-01-29T19:48:16.421Z,-22774.59
2023-01-29T19:50:43.878Z,-22774.04
2023-01-29T19:53:10.679Z,-22773.46
2023-01-29T19:55:38.542Z,-22772.68
2023-01-29T19:58:05.366Z,-22771.92
2023-01-29T20:00:32.529Z,-22771.51
2023-01-29T20:02:59.279Z,-22771.14
2023-01-29T20:05:26.551Z,-22769.94
2023-01-29T20:07:53.992Z,-22770.01
2023-01-29T20:10:22.540Z,-22770.93
2023-01-29T20:12:49.535Z,-22773.18
2023-01-29T20:15:16.893Z,-22776.37
2023-01-29T20:17:45.389Z,-22778.49
2023-01-29T20:20:12.335Z,-22780.74
2023-01-29T20:22:39.014Z,-22784.40
2023-01-29T20:25:07.136Z,-22786.28
2023-01-29T20:27:34.116Z,-22786.96
2023-01-29T20:30:01.334Z,-22786.83
2023-01-29T20:32:32.353Z,-22785.97
2023-01-29T20:35:00.045Z,-22785.90
2023-01-29T20:37:26.991Z,-22785.19
2023-01-29T20:39:54.204Z,-22783.82
2023-01-29T20:42:22.541Z,-22782.07
2023-01-29T20:44:49.726Z,-22780.40
2023-01-29T20:47:16.664Z,-22777.97
2023-01-29T20:49:44.740Z,-22777.12
2023-01-29T20:52:12.035Z,-22778.28
2023-01-29T20:54:40.410Z,-22780.33
2023-01-29T20:57:11.009Z,-22783.55
2023-01-29T20:59:38.451Z,-22786.52
2023-01-29T21:02:05.643Z,-22787.96
2023-01-29T21:04:32.688Z,-22787.34
2023-01-29T21:06:59.754Z,-22785.32
2023-01-29T21:09:26.517Z,-22783.48
2023-01-29T21:11:53.360Z,-22782.07
2023-01-29T21:14:22.193Z,-22781.08
2023-01-29T21:16:49.627Z,-22779.55
2023-01-29T21:19:16.421Z,-22777.91
2023-01-29T21:21:43.373Z,-22776.61
2023-01-29T21:24:11.284Z,-22775.31
2023-01-29T21:26:38.340Z,-22775.07
2023-01-29T21:29:05.331Z,-22775.89
2023-01-29T21:31:32.643Z,-22775.99
2023-01-29T21:33:59.344Z,-22777.19
2023-01-29T21:36:26.147Z,-22779.75
2023-01-29T21:38:52.876Z,-22782.11
2023-01-29T21:41:39.775Z,-22782.96
2023-01-29T21:44:06.786Z,-22781.94
2023-01-29T21:46:33.788Z,-22780.54
2023-01-29T21:49:00.906Z,-22779.03
